Time;durP1;ratioP1;P1;durP2;ratioP2;P2;SDS_P1;SDS_P2;PMS_P1;PMS_P2;Temp;Humidity;BMP_temperature;BMP_pressure;BME280_temperature;BME280_humidity;BME280_pressure;Samples;Min_cycle;Max_cycle;Signal;HPM_P1;HPM_P2
2021/12/09 00:01:59;;;;;;;2.67;1.10;;;;;;;1.00;89.58;99114.08;1724888;80;21445;-52
2021/12/09 00:04:30;;;;;;;2.73;0.93;;;;;;;1.01;89.47;99123.78;1728018;80;21454;-51
2021/12/09 00:06:54;;;;;;;3.97;0.70;;;;;;;1.02;89.36;99116.22;1726346;80;21111;-53
2021/12/09 00:09:21;;;;;;;2.70;0.70;;;;;;;1.04;89.30;99120.17;1726401;80;20918;-52
2021/12/09 00:11:49;;;;;;;1.00;0.80;;;;;;;1.04;89.28;99114.42;1728790;80;21037;-54
2021/12/09 00:14:26;;;;;;;1.83;0.90;;;;;;;1.07;89.31;99118.34;1729008;80;20902;-53
2021/12/09 00:16:55;;;;;;;1.47;0.90;;;;;;;1.07;89.24;99117.47;1726957;80;21058;-51
2021/12/09 00:19:21;;;;;;;2.67;0.90;;;;;;;1.07;89.25;99114.38;1723727;80;21104;-52
2021/12/09 00:21:47;;;;;;;2.83;0.90;;;;;;;1.07;89.29;99127.62;1729565;80;21014;-53
2021/12/09 00:24:16;;;;;;;3.60;1.30;;;;;;;1.06;89.17;99127.20;1726015;80;21499;-54
2021/12/09 00:26:44;;;;;;;2.30;0.87;;;;;;;1.03;89.08;99133.88;1722426;80;21560;-51
2021/12/09 00:29:11;;;;;;;1.03;0.80;;;;;;;1.01;89.05;99135.70;1722666;80;21029;-52
2021/12/09 00:31:37;;;;;;;1.20;0.80;;;;;;;1.00;89.07;99135.73;1728478;80;21128;-53
2021/12/09 00:34:04;;;;;;;1.93;0.83;;;;;;;1.01;89.16;99138.80;1725068;80;22141;-51
2021/12/09 00:36:37;;;;;;;1.60;0.80;;;;;;;1.00;89.06;99137.05;1723970;80;21292;-55
2021/12/09 00:38:59;;;;;;;1.57;1.10;;;;;;;0.99;89.05;99139.28;1720672;80;21057;-54
2021/12/09 00:41:26;;;;;;;1.63;0.93;;;;;;;0.96;89.06;99142.85;1722543;80;21519;-54
2021/12/09 00:43:52;;;;;;;1.60;0.90;;;;;;;0.95;89.15;99139.78;1722671;80;21095;-55
2021/12/09 00:46:19;;;;;;;2.47;1.00;;;;;;;0.95;89.25;99147.73;1728800;80;21096;-52
2021/12/09 00:48:45;;;;;;;2.20;1.10;;;;;;;0.92;89.13;99143.83;1722665;80;21097;-51
2021/12/09 00:51:14;;;;;;;2.33;0.90;;;;;;;0.91;89.12;99147.37;1722221;80;21054;-54
2021/12/09 00:53:40;;;;;;;1.67;0.97;;;;;;;0.91;89.20;99143.86;1722913;80;21097;-54
2021/12/09 00:56:09;;;;;;;2.07;0.90;;;;;;;0.91;89.26;99149.16;1722621;80;21146;-52
2021/12/09 00:58:35;;;;;;;6.03;2.47;;;;;;;0.93;89.28;99146.91;1726131;80;20915;-54
2021/12/09 01:01:02;;;;;;;1.90;0.90;;;;;;;0.92;89.28;99143.83;1724049;80;21048;-54
2021/12/09 01:03:28;;;;;;;2.93;1.40;;;;;;;0.92;89.30;99145.61;1727571;80;21013;-52
2021/12/09 01:05:55;;;;;;;2.77;1.20;;;;;;;0.89;89.32;99145.66;1724418;80;20942;-55
2021/12/09 01:08:21;;;;;;;1.50;0.87;;;;;;;0.88;89.34;99145.23;1726058;80;20910;-54
2021/12/09 01:10:47;;;;;;;3.17;0.90;;;;;;;0.88;89.32;99151.41;1722615;80;20879;-55
2021/12/09 01:13:14;;;;;;;1.83;1.20;;;;;;;0.87;89.33;99142.15;1729030;80;20930;-54
2021/12/09 01:15:40;;;;;;;2.47;1.00;;;;;;;0.87;89.37;99142.15;1728516;80;20934;-52
2021/12/09 01:18:07;;;;;;;2.37;0.93;;;;;;;0.88;89.50;99142.58;1726093;80;20918;-55
2021/12/09 01:20:33;;;;;;;2.50;1.07;;;;;;;0.92;89.57;99148.25;1726812;80;21381;-54
2021/12/09 01:23:01;;;;;;;3.57;1.00;;;;;;;0.93;89.60;99142.06;1724496;80;21026;-50
2021/12/09 01:25:28;;;;;;;2.97;1.23;;;;;;;0.94;89.65;99145.98;1690402;82;20922;-55
2021/12/09 01:27:56;;;;;;;2.87;1.10;;;;;;;0.94;89.60;99145.09;1727369;80;20983;-56
2021/12/09 01:30:23;;;;;;;2.00;0.90;;;;;;;0.93;89.51;99153.98;1726673;80;21291;-55
2021/12/09 01:32:52;;;;;;;1.67;1.40;;;;;;;0.91;89.43;99153.13;1724031;80;22032;-56
2021/12/09 01:35:27;;;;;;;2.60;0.93;;;;;;;0.90;89.49;99152.25;1720630;80;21073;-53
2021/12/09 01:37:58;;;;;;;1.20;0.87;;;;;;;0.85;89.38;99158.55;1720793;80;21073;-52
2021/12/09 01:40:24;;;;;;;3.03;1.10;;;;;;;0.83;89.58;99157.70;1723637;80;20903;-55
2021/12/09 01:42:50;;;;;;;1.47;0.90;;;;;;;0.85;89.62;99159.39;1713673;81;21019;-55
2021/12/09 01:45:16;;;;;;;1.30;1.00;;;;;;;0.89;89.67;99164.20;1707398;81;22032;-52
2021/12/09 01:47:43;;;;;;;2.37;1.07;;;;;;;0.91;89.76;99159.75;1707241;81;21360;-55
2021/12/09 01:50:10;;;;;;;2.40;0.93;;;;;;;0.92;89.63;99157.53;1714600;81;20911;-55
2021/12/09 01:52:37;;;;;;;1.30;1.00;;;;;;;0.90;89.68;99158.88;1714057;81;21453;-53
2021/12/09 01:56:59;;;;;;;1.67;0.80;;;;;;;0.93;89.60;99153.53;1775195;78;26445;-52
2021/12/09 01:59:25;;;;;;;1.50;1.10;;;;;;;0.88;89.58;99158.47;1740044;80;21282;-52
2021/12/09 02:01:52;;;;;;;1.83;0.90;;;;;;;0.87;89.55;99158.05;1737408;80;22221;-53
2021/12/09 02:04:18;;;;;;;1.17;0.90;;;;;;;0.85;89.56;99162.53;1736884;80;21694;-51
2021/12/09 02:06:46;;;;;;;1.60;1.10;;;;;;;0.84;89.62;99160.78;1738235;80;21025;-53
2021/12/09 02:09:13;;;;;;;1.80;1.00;;;;;;;0.86;89.82;99167.77;1703730;81;21075;-51
2021/12/09 02:11:40;;;;;;;1.50;0.80;;;;;;;0.89;89.82;99163.75;1710053;81;21515;-52
2021/12/09 02:14:07;;;;;;;1.77;0.90;;;;;;;0.92;89.86;99169.00;1708071;81;20902;-55
2021/12/09 02:16:34;;;;;;;1.90;1.00;;;;;;;0.95;89.81;99162.75;1708386;81;20981;-52
2021/12/09 02:19:01;;;;;;;1.40;0.80;;;;;;;0.95;89.80;99168.92;1703143;81;21255;-55
2021/12/09 02:21:31;;;;;;;1.30;0.90;;;;;;;0.94;89.72;99167.63;1705389;81;21000;-52
2021/12/09 02:24:03;;;;;;;2.93;1.30;;;;;;;0.91;89.61;99173.00;1713032;81;20921;-52
2021/12/09 02:26:35;;;;;;;1.70;0.80;;;;;;;0.89;89.63;99178.77;1705224;81;21120;-56
2021/12/09 02:29:03;;;;;;;1.40;0.97;;;;;;;0.88;89.65;99185.84;1690271;82;21056;-56
2021/12/09 02:31:29;;;;;;;38.70;13.43;;;;;;;0.89;89.66;99184.07;1697973;82;21161;-56
2021/12/09 02:33:56;;;;;;;30.20;8.40;;;;;;;0.88;89.64;99188.95;1679755;82;21175;-55
2021/12/09 02:36:23;;;;;;;12.57;4.17;;;;;;;0.87;89.64;99191.17;1679682;82;21613;-56
2021/12/09 02:38:50;;;;;;;5.03;2.13;;;;;;;0.88;89.69;99187.17;1680604;82;21879;-55
2021/12/09 02:41:23;;;;;;;2.10;1.43;;;;;;;0.88;89.74;99187.17;1680758;82;21089;-55
2021/12/09 02:44:01;;;;;;;3.27;1.60;;;;;;;0.90;89.73;99187.15;1691517;82;21709;-56
2021/12/09 02:46:29;;;;;;;3.70;1.37;;;;;;;0.91;89.73;99187.58;1686883;82;21707;-55
2021/12/09 02:48:55;;;;;;;6.53;2.00;;;;;;;0.90;89.64;99192.45;1682898;82;21551;-56
2021/12/09 02:51:21;;;;;;;3.43;1.53;;;;;;;0.91;89.62;99191.55;1679457;82;21133;-56
2021/12/09 02:53:48;;;;;;;3.00;1.10;;;;;;;0.91;89.56;99195.52;1662364;83;21088;-55
2021/12/09 02:56:16;;;;;;;4.37;1.47;;;;;;;0.88;89.54;99193.80;1685254;82;21048;-56
2021/12/09 02:58:42;;;;;;;3.40;1.33;;;;;;;0.88;89.58;99196.89;1688707;83;21075;-55
2021/12/09 03:01:15;;;;;;;5.60;2.17;;;;;;;0.90;89.65;99194.65;1692468;82;21099;-56
2021/12/09 03:03:54;;;;;;;1.83;1.23;;;;;;;0.92;89.62;99204.78;1698863;82;22975;-55
2021/12/09 03:06:17;;;;;;;2.67;1.27;;;;;;;0.90;89.57;99199.07;1693583;82;21092;-57
2021/12/09 03:08:44;;;;;;;2.90;1.50;;;;;;;0.91;89.62;99202.15;1673332;83;20902;-57
2021/12/09 03:11:16;;;;;;;1.63;1.00;;;;;;;0.90;89.59;99203.92;1668588;83;21537;-57
2021/12/09 03:13:43;;;;;;;2.33;0.93;;;;;;;0.91;89.55;99207.00;1674525;83;21127;-56
2021/12/09 03:16:11;;;;;;;1.50;0.70;;;;;;;0.90;89.50;99205.70;1675853;83;21087;-56
2021/12/09 03:18:47;;;;;;;1.10;0.70;;;;;;;0.91;89.55;99210.97;1692560;82;21067;-56
2021/12/09 03:21:21;;;;;;;1.00;0.80;;;;;;;0.93;89.55;99214.48;1670762;83;22402;-56
2021/12/09 03:23:49;;;;;;;1.10;1.00;;;;;;;0.95;89.60;99206.47;1674834;83;21071;-56
2021/12/09 03:26:17;;;;;;;0.80;0.67;;;;;;;1.00;89.58;99212.58;1692136;82;21143;-56
2021/12/09 03:28:43;;;;;;;2.13;0.97;;;;;;;0.98;89.43;99212.61;1694912;82;21159;-56
2021/12/09 03:31:10;;;;;;;1.57;0.63;;;;;;;0.97;89.44;99209.98;1670212;83;20989;-56
2021/12/09 03:33:36;;;;;;;1.20;0.70;;;;;;;0.97;89.48;99212.18;1700639;82;20930;-56
2021/12/09 03:36:05;;;;;;;0.90;0.77;;;;;;;0.97;89.28;99210.85;1679661;83;20932;-56
2021/12/09 03:38:32;;;;;;;0.93;0.70;;;;;;;0.95;89.23;99217.08;1682919;83;20957;-56
2021/12/09 03:40:59;;;;;;;1.10;0.70;;;;;;;0.95;89.30;99217.08;1696493;82;21416;-57
2021/12/09 03:43:25;;;;;;;2.80;1.27;;;;;;;0.97;89.39;99213.95;1692910;82;21128;-57
2021/12/09 03:45:54;;;;;;;1.13;0.90;;;;;;;1.02;89.46;99213.44;1674013;83;21585;-57
2021/12/09 03:48:26;;;;;;;2.50;0.80;;;;;;;1.04;89.36;99207.19;1695606;82;20901;-56
2021/12/09 03:50:53;;;;;;;1.60;0.77;;;;;;;1.03;89.23;99209.86;1679559;83;21379;-56
2021/12/09 03:53:20;;;;;;;1.13;0.70;;;;;;;0.99;89.07;99217.45;1671033;83;22178;-56
2021/12/09 03:55:46;;;;;;;1.00;0.63;;;;;;;0.96;89.10;99210.88;1671953;83;21036;-56
2021/12/09 03:58:12;;;;;;;1.43;0.60;;;;;;;0.96;89.11;99215.73;1696645;83;22084;-56
2021/12/09 04:00:39;;;;;;;3.53;0.63;;;;;;;0.97;89.16;99217.93;1678815;83;21808;-57
2021/12/09 04:03:07;;;;;;;1.07;0.60;;;;;;;0.98;89.17;99219.23;1698971;82;21456;-56
2021/12/09 04:05:33;;;;;;;2.03;0.80;;;;;;;1.00;89.17;99231.14;1696855;82;22355;-56
2021/12/09 04:08:00;;;;;;;1.67;0.60;;;;;;;1.03;89.17;99228.41;1678914;83;20934;-57
2021/12/09 04:10:26;;;;;;;0.87;0.60;;;;;;;1.05;89.16;99230.14;1679702;83;20909;-56
2021/12/09 04:12:52;;;;;;;0.90;0.60;;;;;;;1.08;89.13;99233.19;1680451;83;20972;-56
2021/12/09 04:15:19;;;;;;;2.40;0.70;;;;;;;1.08;88.99;99238.49;1700056;82;20949;-57
2021/12/09 04:17:45;;;;;;;1.00;0.70;;;;;;;1.04;88.85;99235.46;1678085;83;21118;-56
2021/12/09 04:20:12;;;;;;;0.97;0.70;;;;;;;1.01;88.85;99232.89;1685246;82;20894;-56
2021/12/09 04:22:39;;;;;;;5.63;1.27;;;;;;;0.99;88.81;99238.21;1701515;82;20917;-56
2021/12/09 04:25:06;;;;;;;2.00;0.80;;;;;;;0.96;88.84;99236.93;1678904;83;21123;-56
2021/12/09 04:27:33;;;;;;;2.63;1.00;;;;;;;0.98;88.94;99235.58;1698861;82;20914;-56
2021/12/09 04:29:59;;;;;;;1.10;0.80;;;;;;;0.99;88.98;99239.98;1678782;83;21125;-57
2021/12/09 04:32:26;;;;;;;1.47;0.90;;;;;;;1.00;88.95;99240.41;1696775;82;21037;-57
2021/12/09 04:34:53;;;;;;;2.77;1.00;;;;;;;1.00;88.99;99248.36;1675358;83;20954;-57
2021/12/09 04:37:20;;;;;;;3.10;1.00;;;;;;;0.97;88.89;99233.83;1678662;83;20998;-56
2021/12/09 04:39:46;;;;;;;2.33;1.17;;;;;;;0.93;88.84;99234.35;1693400;82;21123;-56
2021/12/09 04:42:13;;;;;;;4.87;1.63;;;;;;;0.90;88.90;99238.82;1671937;83;21148;-56
2021/12/09 04:44:39;;;;;;;3.53;1.77;;;;;;;0.90;89.00;99234.84;1676613;82;21070;-57
2021/12/09 04:47:05;;;;;;;2.33;1.47;;;;;;;0.91;89.01;99237.47;1674839;83;21277;-56
2021/12/09 04:49:32;;;;;;;2.87;1.37;;;;;;;0.93;89.09;99238.78;1693418;82;21028;-56
2021/12/09 04:52:00;;;;;;;5.33;2.40;;;;;;;0.94;89.12;99240.05;1671972;83;21418;-57
2021/12/09 04:54:26;;;;;;;6.20;3.00;;;;;;;0.97;89.12;99245.75;1687704;83;21095;-56
2021/12/09 04:56:53;;;;;;;4.17;2.30;;;;;;;0.96;89.12;99254.16;1684226;82;21075;-56
2021/12/09 04:59:19;;;;;;;4.97;1.77;;;;;;;0.95;89.02;99258.15;1668498;83;21086;-56
2021/12/09 05:01:49;;;;;;;3.97;1.30;;;;;;;0.94;89.00;99260.38;1670217;83;21459;-57
2021/12/09 05:04:14;;;;;;;5.87;1.43;;;;;;;0.94;89.05;99261.25;1669245;83;21105;-57
2021/12/09 05:06:41;;;;;;;3.50;1.80;;;;;;;0.95;89.05;99268.75;1669455;83;21138;-57
2021/12/09 05:09:11;;;;;;;2.07;1.50;;;;;;;0.94;89.06;99270.52;1668526;83;21380;-56
2021/12/09 05:14:02;;;;;;;4.93;2.17;;;;;;;1.03;89.22;99276.12;1710414;81;20967;-57
2021/12/09 05:16:30;;;;;;;2.87;1.47;;;;;;;1.02;89.20;99282.34;1711601;81;20931;-56
2021/12/09 05:18:58;;;;;;;5.23;1.93;;;;;;;1.03;89.21;99281.41;1710509;81;22217;-56
2021/12/09 05:21:29;;;;;;;5.03;2.40;;;;;;;1.03;89.19;99286.72;1707264;81;21031;-57
2021/12/09 05:23:59;;;;;;;5.73;2.33;;;;;;;1.04;89.09;99293.77;1707734;81;21094;-56
2021/12/09 05:26:29;;;;;;;4.43;2.13;;;;;;;1.05;89.14;99295.08;1709091;81;21077;-57
2021/12/09 05:28:56;;;;;;;4.57;1.60;;;;;;;1.05;89.08;99290.22;1711410;81;21042;-57
2021/12/09 05:34:07;;;;;;;2.97;2.00;;;;;;;1.10;89.19;99291.91;1721306;81;21397;-57
2021/12/09 05:36:34;;;;;;;4.67;2.67;;;;;;;1.08;89.02;99299.45;1709135;81;22253;-57
2021/12/09 05:39:00;;;;;;;5.83;2.43;;;;;;;1.05;89.06;99300.83;1705919;81;21659;-56
2021/12/09 05:41:27;;;;;;;4.50;2.03;;;;;;;1.06;89.11;99302.58;1711018;81;21540;-57
2021/12/09 05:43:53;;;;;;;3.97;1.60;;;;;;;1.05;89.06;99303.03;1711904;81;21354;-56
2021/12/09 05:46:22;;;;;;;4.17;1.73;;;;;;;1.07;89.03;99316.26;1713283;81;21089;-57
2021/12/09 05:48:49;;;;;;;3.37;1.43;;;;;;;1.05;88.99;99315.41;1713217;81;21038;-57
2021/12/09 05:51:16;;;;;;;6.60;2.20;;;;;;;1.06;89.09;99324.66;1708064;81;21053;-56
2021/12/09 05:53:42;;;;;;;5.60;2.07;;;;;;;1.10;89.12;99330.34;1709529;81;21093;-57
2021/12/09 05:56:08;;;;;;;5.60;2.43;;;;;;;1.10;89.09;99333.45;1707088;81;21527;-57
2021/12/09 05:58:35;;;;;;;4.30;2.13;;;;;;;1.10;89.13;99335.65;1722713;80;21546;-57
2021/12/09 06:01:01;;;;;;;5.23;3.30;;;;;;;1.12;89.20;99338.25;1718616;80;21061;-57
2021/12/09 06:03:27;;;;;;;7.57;2.67;;;;;;;1.13;89.16;99338.23;1720651;80;21041;-56
2021/12/09 06:05:54;;;;;;;3.67;2.10;;;;;;;1.13;89.16;99342.20;1725209;80;21030;-57
2021/12/09 06:08:20;;;;;;;5.13;2.73;;;;;;;1.16;89.12;99345.71;1721369;80;21065;-57
2021/12/09 06:10:46;;;;;;;5.77;2.27;;;;;;;1.17;89.07;99348.80;1721490;80;21069;-57
2021/12/09 06:13:13;;;;;;;7.27;2.87;;;;;;;1.17;89.03;99348.80;1721749;80;21065;-57
2021/12/09 06:15:39;;;;;;;4.67;2.40;;;;;;;1.18;89.09;99350.55;1723416;80;21326;-57
2021/12/09 06:18:07;;;;;;;4.90;2.30;;;;;;;1.19;89.07;99349.65;1725784;80;21116;-57
2021/12/09 06:20:33;;;;;;;5.93;3.50;;;;;;;1.22;89.09;99353.10;1721508;80;22299;-57
2021/12/09 06:22:59;;;;;;;8.43;4.00;;;;;;;1.24;89.10;99357.94;1720787;80;22418;-56
2021/12/09 06:25:26;;;;;;;6.63;3.20;;;;;;;1.27;89.12;99360.55;1684733;82;22441;-56
2021/12/09 06:27:54;;;;;;;8.43;3.30;;;;;;;1.28;89.06;99363.59;1722637;80;21260;-56
2021/12/09 06:30:21;;;;;;;8.13;3.20;;;;;;;1.27;89.01;99366.30;1722204;80;21128;-56
2021/12/09 06:32:47;;;;;;;6.40;3.17;;;;;;;1.25;88.87;99368.09;1723063;80;21400;-57
2021/12/09 06:35:14;;;;;;;6.33;3.60;;;;;;;1.22;88.77;99371.66;1723246;80;21025;-57
2021/12/09 06:37:44;;;;;;;7.07;3.73;;;;;;;1.18;88.80;99372.63;1723161;80;21121;-57
2021/12/09 06:40:09;;;;;;;6.20;4.33;;;;;;;1.17;88.98;99374.85;1724706;80;21429;-57
2021/12/09 06:42:35;;;;;;;7.20;4.20;;;;;;;1.22;89.10;99389.34;1722798;80;20943;-57
2021/12/09 06:45:04;;;;;;;8.40;4.80;;;;;;;1.21;89.01;99387.14;1726296;80;20958;-57
2021/12/09 06:47:31;;;;;;;7.87;5.30;;;;;;;1.18;88.98;99383.69;1727409;80;20887;-57
2021/12/09 06:49:59;;;;;;;9.03;6.10;;;;;;;1.16;89.03;99392.98;1724546;80;20938;-57
2021/12/09 06:52:25;;;;;;;6.53;3.83;;;;;;;1.13;89.08;99391.69;1726247;80;21026;-56
2021/12/09 06:54:51;;;;;;;7.47;3.67;;;;;;;1.12;89.10;99392.59;1724461;80;20879;-57
2021/12/09 06:57:18;;;;;;;7.37;3.10;;;;;;;1.12;89.08;99393.47;1719021;80;21832;-56
2021/12/09 06:59:44;;;;;;;7.13;3.83;;;;;;;1.12;89.10;99393.91;1659193;84;21407;-58
2021/12/09 07:02:11;;;;;;;9.10;3.27;;;;;;;1.15;89.18;99396.53;1672944;83;21430;-57
2021/12/09 07:04:38;;;;;;;5.17;3.03;;;;;;;1.16;89.24;99398.28;1670845;83;22082;-57
2021/12/09 07:07:04;;;;;;;6.33;3.77;;;;;;;1.18;89.22;99402.23;1673959;83;21882;-56
2021/12/09 07:09:31;;;;;;;4.73;3.93;;;;;;;1.20;89.29;99397.31;1671648;83;21144;-57
2021/12/09 07:11:57;;;;;;;6.60;3.83;;;;;;;1.21;89.26;99400.84;1667277;83;21142;-57
2021/12/09 07:14:24;;;;;;;7.60;5.00;;;;;;;1.23;89.34;99403.03;1666621;83;21153;-57
2021/12/09 07:16:50;;;;;;;8.27;4.97;;;;;;;1.22;89.24;99399.50;1652412;84;21117;-57
2021/12/09 07:19:17;;;;;;;9.67;4.77;;;;;;;1.19;89.11;99400.90;1672043;83;21074;-57
2021/12/09 07:21:43;;;;;;;7.40;3.77;;;;;;;1.18;89.13;99411.08;1673002;83;21081;-58
2021/12/09 07:24:09;;;;;;;4.30;3.90;;;;;;;1.17;89.14;99404.46;1669753;83;21345;-57
2021/12/09 07:26:35;;;;;;;8.33;4.27;;;;;;;1.17;89.21;99411.97;1668098;83;21364;-56
2021/12/09 07:29:02;;;;;;;6.70;3.93;;;;;;;1.12;89.12;99402.74;1674888;83;21412;-56
2021/12/09 07:31:29;;;;;;;7.73;5.33;;;;;;;1.13;89.25;99407.59;1667672;83;21156;-57
2021/12/09 07:33:56;;;;;;;9.30;5.50;;;;;;;1.12;89.33;99406.72;1710819;81;21160;-57
2021/12/09 07:36:24;;;;;;;11.23;6.23;;;;;;;1.12;89.36;99413.34;1707324;81;21149;-56
2021/12/09 07:38:50;;;;;;;9.17;5.97;;;;;;;1.09;89.36;99410.77;1709656;81;20975;-57
2021/12/09 07:41:17;;;;;;;10.73;5.47;;;;;;;1.07;89.44;99415.66;1712711;81;20983;-57
2021/12/09 07:43:43;;;;;;;6.47;4.47;;;;;;;1.07;89.52;99420.95;1710824;81;20959;-57
2021/12/09 07:46:09;;;;;;;8.23;5.57;;;;;;;1.08;89.55;99421.39;1710775;81;22242;-57
2021/12/09 07:48:35;;;;;;;9.87;6.23;;;;;;;1.08;89.55;99424.04;1710696;81;21273;-57
2021/12/09 07:51:02;;;;;;;12.50;6.83;;;;;;;1.06;89.49;99433.33;1707608;81;21464;-57
2021/12/09 07:53:29;;;;;;;12.50;8.13;;;;;;;1.02;89.51;99432.94;1707259;81;21529;-57
2021/12/09 07:55:55;;;;;;;11.33;7.77;;;;;;;1.01;89.61;99432.54;1710841;81;21690;-57
2021/12/09 07:58:23;;;;;;;9.63;6.73;;;;;;;1.01;89.63;99440.49;1709053;81;21071;-57
2021/12/09 08:00:49;;;;;;;14.80;6.87;;;;;;;1.01;89.72;99444.91;1714325;81;20955;-57
2021/12/09 08:03:16;;;;;;;13.80;7.93;;;;;;;1.02;89.81;99450.64;1711706;81;21078;-57
2021/12/09 08:05:45;;;;;;;13.27;7.10;;;;;;;1.00;89.87;99449.34;1675486;83;21153;-56
2021/12/09 08:08:12;;;;;;;11.97;6.50;;;;;;;1.01;89.90;99447.56;1668902;83;21157;-57
2021/12/09 08:10:39;;;;;;;16.43;8.33;;;;;;;1.02;89.86;99447.52;1657457;84;21154;-57
2021/12/09 08:13:06;;;;;;;15.07;8.63;;;;;;;1.01;89.82;99446.23;1673057;83;21057;-57
2021/12/09 08:15:35;;;;;;;14.07;7.97;;;;;;;1.01;89.88;99446.23;1673999;83;21052;-57
2021/12/09 08:18:04;;;;;;;20.87;11.40;;;;;;;1.02;89.99;99446.67;1674490;83;21069;-57
2021/12/09 08:20:32;;;;;;;20.90;11.50;;;;;;;1.04;89.94;99442.20;1668458;83;21643;-57
2021/12/09 08:22:59;;;;;;;17.77;10.87;;;;;;;1.02;89.90;99442.69;1667873;83;21468;-57
2021/12/09 08:25:25;;;;;;;19.30;10.13;;;;;;;1.03;90.06;99446.62;1664338;83;21591;-57
2021/12/09 08:27:52;;;;;;;19.17;10.43;;;;;;;1.04;90.10;99444.84;1667604;83;21487;-58
2021/12/09 08:30:21;;;;;;;18.47;9.80;;;;;;;1.07;90.16;99453.64;1667376;83;22898;-57
2021/12/09 08:32:48;;;;;;;20.60;11.80;;;;;;;1.06;90.02;99457.19;1671524;83;21086;-57
2021/12/09 08:35:15;;;;;;;22.13;12.57;;;;;;;1.05;90.01;99458.08;1674754;83;21172;-57
2021/12/09 08:37:44;;;;;;;28.17;13.57;;;;;;;1.05;90.00;99451.91;1670527;83;21133;-57
2021/12/09 08:40:12;;;;;;;22.60;11.93;;;;;;;1.05;90.05;99454.55;1672009;83;21539;-58
2021/12/09 08:42:39;;;;;;;16.30;8.90;;;;;;;1.04;90.04;99451.02;1670505;83;21133;-59
2021/12/09 08:45:09;;;;;;;11.77;8.70;;;;;;;1.06;90.16;99453.21;1670751;84;21074;-57
2021/12/09 08:47:36;;;;;;;14.57;8.97;;;;;;;1.06;90.13;99447.91;1673076;83;21391;-58
2021/12/09 08:50:04;;;;;;;17.40;7.43;;;;;;;1.04;90.19;99451.47;1674085;83;21049;-58
2021/12/09 08:52:32;;;;;;;18.40;12.43;;;;;;;1.02;90.24;99449.32;1666679;83;21606;-58
2021/12/09 08:54:58;;;;;;;17.90;9.67;;;;;;;1.00;90.24;99452.44;1670805;83;21672;-58
2021/12/09 08:57:25;;;;;;;12.17;7.03;;;;;;;1.00;90.26;99447.13;1665595;83;21654;-58
2021/12/09 08:59:53;;;;;;;13.90;6.40;;;;;;;1.00;90.37;99448.45;1671869;83;21014;-58
2021/12/09 09:02:20;;;;;;;17.43;7.87;;;;;;;1.02;90.39;99440.89;1676550;83;22315;-58
2021/12/09 09:04:46;;;;;;;14.97;8.83;;;;;;;1.05;90.49;99446.16;1668382;83;21113;-57
2021/12/09 09:07:12;;;;;;;15.23;8.77;;;;;;;1.11;90.61;99443.41;1669485;83;21074;-58
2021/12/09 09:09:39;;;;;;;19.07;10.07;;;;;;;1.19;90.60;99449.06;1670012;83;21070;-59
2021/12/09 09:12:09;;;;;;;19.43;10.67;;;;;;;1.17;90.40;99441.12;1672301;83;21147;-57
2021/12/09 09:14:36;;;;;;;17.57;9.47;;;;;;;1.13;90.37;99438.96;1669857;83;21594;-58
2021/12/09 09:17:03;;;;;;;18.90;9.33;;;;;;;1.15;90.42;99445.57;1668520;83;21765;-58
2021/12/09 09:19:29;;;;;;;14.60;6.97;;;;;;;1.18;90.45;99445.53;1669794;84;21088;-58
2021/12/09 09:21:55;;;;;;;15.13;6.43;;;;;;;1.21;90.36;99436.64;1667801;84;21106;-59
2021/12/09 09:24:22;;;;;;;10.50;6.67;;;;;;;1.22;90.31;99438.39;1666671;84;21144;-59
2021/12/09 09:26:48;;;;;;;11.63;5.93;;;;;;;1.26;90.50;99438.78;1667732;84;21113;-58
2021/12/09 09:29:15;;;;;;;9.97;6.67;;;;;;;1.28;90.38;99439.16;1673506;84;21103;-58
2021/12/09 09:31:42;;;;;;;12.93;6.10;;;;;;;1.27;90.36;99440.09;1674462;83;20959;-57
2021/12/09 09:34:11;;;;;;;12.97;6.70;;;;;;;1.28;90.33;99440.94;1673885;84;20983;-56
2021/12/09 09:36:43;;;;;;;7.67;5.70;;;;;;;1.27;90.24;99440.09;1675545;84;22242;-58
2021/12/09 09:39:17;;;;;;;8.57;5.30;;;;;;;1.27;90.16;99440.09;1670728;84;20990;-57
2021/12/09 09:41:36;;;;;;;10.87;6.77;;;;;;;1.26;90.14;99442.31;1671095;83;20987;-58
2021/12/09 09:44:14;;;;;;;7.17;4.83;;;;;;;1.28;90.23;99436.52;1674056;84;20982;-56
2021/12/09 09:46:39;;;;;;;7.60;5.77;;;;;;;1.32;90.25;99443.53;1674349;84;22021;-58
2021/12/09 09:49:06;;;;;;;14.00;6.90;;;;;;;1.35;90.27;99441.30;1671603;84;21920;-58
2021/12/09 09:51:35;;;;;;;11.33;6.07;;;;;;;1.34;90.17;99448.81;1673226;84;21496;-58
2021/12/09 09:54:02;;;;;;;10.13;6.33;;;;;;;1.32;90.16;99448.84;1672606;84;20990;-57
2021/12/09 09:56:28;;;;;;;8.33;5.10;;;;;;;1.35;90.30;99446.15;1674382;84;21505;-58
2021/12/09 09:58:57;;;;;;;9.27;4.47;;;;;;;1.37;90.24;99444.32;1674160;84;21492;-57
2021/12/09 10:01:24;;;;;;;11.93;7.00;;;;;;;1.38;90.10;99446.08;1671327;84;21115;-58
2021/12/09 10:03:57;;;;;;;37.20;17.93;;;;;;;1.37;90.02;99439.02;1671835;84;20971;-57
2021/12/09 10:06:19;;;;;;;33.27;18.07;;;;;;;1.39;89.92;99439.00;1670546;84;20950;-58
2021/12/09 10:08:46;;;;;;;26.10;15.63;;;;;;;1.36;89.89;99443.89;1671497;84;21457;-58
2021/12/09 10:11:12;;;;;;;23.57;13.03;;;;;;;1.36;89.87;99441.72;1671907;84;21415;-57
2021/12/09 10:13:40;;;;;;;24.90;15.40;;;;;;;1.34;89.82;99444.39;1671047;84;21705;-58
2021/12/09 10:16:17;;;;;;;27.63;13.80;;;;;;;1.33;89.83;99444.41;1672605;84;20986;-58
2021/12/09 10:18:48;;;;;;;25.97;12.83;;;;;;;1.31;89.85;99441.78;1689895;83;21491;-57
2021/12/09 10:21:23;;;;;;;27.57;12.10;;;;;;;1.30;89.84;99445.77;1659125;85;20943;-57
2021/12/09 10:24:03;;;;;;;17.23;10.43;;;;;;;1.27;89.94;99441.42;1662737;85;21792;-58
2021/12/09 10:26:43;;;;;;;23.33;10.50;;;;;;;1.30;89.95;99447.09;1665820;85;22483;-58
2021/12/09 10:29:20;;;;;;;21.83;12.50;;;;;;;1.29;89.85;99444.89;1664877;85;21798;-57
2021/12/09 10:31:52;;;;;;;19.90;11.00;;;;;;;1.31;89.88;99451.06;1660876;85;20923;-57
2021/12/09 10:34:40;;;;;;;24.70;11.20;;;;;;;1.32;89.90;99454.14;1657762;85;21105;-57
2021/12/09 10:37:29;;;;;;;20.37;10.03;;;;;;;1.35;89.98;99455.43;1658151;85;21093;-57
2021/12/09 10:40:08;;;;;;;16.10;9.77;;;;;;;1.40;89.96;99460.64;1658291;85;21130;-57
2021/12/09 10:42:43;;;;;;;23.90;10.50;;;;;;;1.43;90.01;99452.20;1662290;85;21727;-57
2021/12/09 10:45:14;;;;;;;25.00;10.43;;;;;;;1.46;89.95;99460.53;1657663;85;21620;-56
2021/12/09 10:47:59;;;;;;;25.23;10.83;;;;;;;1.43;89.71;99453.98;1664317;85;21394;-57
2021/12/09 10:50:42;;;;;;;13.10;7.23;;;;;;;1.36;89.58;99456.31;1663315;85;21086;-57
2021/12/09 10:55:58;;;;;;;;;;;;;;;1.31;89.63;99454.16;1719649;82;21081;-57
2021/12/09 10:58:31;;;;;;;17.45;8.93;;;;;;;1.31;89.69;99456.81;1716276;81;20722;-57
2021/12/09 11:01:02;;;;;;;19.77;9.00;;;;;;;1.33;89.84;99445.73;1719053;82;21116;-57
2021/12/09 11:03:42;;;;;;;15.43;7.73;;;;;;;1.35;89.78;99451.45;1724769;82;21045;-57
2021/12/09 11:06:11;;;;;;;15.53;7.57;;;;;;;1.35;89.74;99444.82;1725010;82;21139;-57
2021/12/09 11:08:47;;;;;;;20.53;10.33;;;;;;;1.34;89.70;99444.39;1724951;82;20895;-57
2021/12/09 11:11:35;;;;;;;19.87;15.77;;;;;;;1.33;89.71;99438.66;1729666;82;21086;-57
2021/12/09 11:14:13;;;;;;;28.00;20.87;;;;;;;1.30;89.63;99452.41;1721830;81;20902;-57
2021/12/09 11:16:45;;;;;;;17.27;8.83;;;;;;;1.25;89.59;99447.19;1724394;82;21084;-56
2021/12/09 11:22:02;;;;;;;10.67;6.50;;;;;;;1.22;89.71;99451.20;1726600;82;21033;-57
2021/12/09 11:24:35;;;;;;;10.90;6.70;;;;;;;1.22;89.75;99450.32;1725282;82;20967;-56
2021/12/09 11:27:08;;;;;;;13.90;7.33;;;;;;;1.22;89.80;99445.90;1702159;82;21046;-55
2021/12/09 11:29:42;;;;;;;13.03;8.28;;;;;;;1.21;89.84;99444.59;1722994;81;21011;-56
2021/12/09 11:32:28;;;;;;;17.87;9.67;;;;;;;1.22;89.86;99450.32;1723462;82;21385;-56
2021/12/09 11:35:09;;;;;;;24.33;15.33;;;;;;;1.19;89.86;99443.77;1725709;82;21358;-57
2021/12/09 11:40:33;;;;;;;17.23;10.90;;;;;;;1.14;89.95;99453.97;1720847;82;21654;-56
2021/12/09 11:42:57;;;;;;;25.95;14.58;;;;;;;1.19;90.13;99457.89;1719995;82;21088;-56
2021/12/09 11:45:25;;;;;;;19.23;11.10;;;;;;;1.24;90.23;99445.43;1717972;82;20962;-56
2021/12/09 11:47:53;;;;;;;15.37;9.10;;;;;;;1.29;90.22;99452.85;1724566;82;20966;-55
2021/12/09 11:50:26;;;;;;;19.27;10.00;;;;;;;1.33;90.14;99443.96;1724153;82;21495;-57
2021/12/09 11:52:54;;;;;;;17.03;9.50;;;;;;;1.34;90.11;99452.80;1720972;82;21597;-57
2021/12/09 11:55:26;;;;;;;14.70;9.57;;;;;;;1.38;90.17;99454.48;1728004;82;21409;-57
2021/12/09 11:58:00;;;;;;;24.03;11.47;;;;;;;1.44;90.34;99456.61;1722010;82;21087;-57
2021/12/09 12:12:44;;;;;;;12.10;8.97;;;;;;;1.40;89.84;99460.20;1696121;83;21208;-57